sensor_id;sensor_type;location;lat;lon;timestamp;temperature;humidity
19586;DHT22;9939;49.246;9.106;2022-07-25T00:02:07;20.30;99.90
19586;DHT22;9939;49.246;9.106;2022-07-25T00:04:34;20.30;99.90
19586;DHT22;9939;49.246;9.106;2022-07-25T00:07:02;20.30;99.90
19586;DHT22;9939;49.246;9.106;2022-07-25T00:09:29;20.30;99.90
19586;DHT22;9939;49.246;9.106;2022-07-25T00:11:55;20.30;99.90
19586;DHT22;9939;49.246;9.106;2022-07-25T00:14:23;20.30;99.90
19586;DHT22;9939;49.246;9.106;2022-07-25T00:16:50;20.30;99.90
19586;DHT22;9939;49.246;9.106;2022-07-25T00:19:17;20.30;99.90
19586;DHT22;9939;49.246;9.106;2022-07-25T00:21:44;20.20;99.90
19586;DHT22;9939;49.246;9.106;2022-07-25T00:24:11;20.10;99.90
19586;DHT22;9939;49.246;9.106;2022-07-25T00:26:37;20.00;99.90
19586;DHT22;9939;49.246;9.106;2022-07-25T00:29:06;19.90;99.90
19586;DHT22;9939;49.246;9.106;2022-07-25T00:31:33;20.00;99.90
19586;DHT22;9939;49.246;9.106;2022-07-25T00:34:01;20.10;99.90
19586;DHT22;9939;49.246;9.106;2022-07-25T00:36:28;20.10;99.90
19586;DHT22;9939;49.246;9.106;2022-07-25T00:38:55;19.90;99.90
19586;DHT22;9939;49.246;9.106;2022-07-25T00:41:22;20.10;99.90
19586;DHT22;9939;49.246;9.106;2022-07-25T00:43:49;20.10;99.90
19586;DHT22;9939;49.246;9.106;2022-07-25T00:46:17;20.00;99.90
19586;DHT22;9939;49.246;9.106;2022-07-25T00:48:44;20.00;99.90
19586;DHT22;9939;49.246;9.106;2022-07-25T00:51:12;20.10;99.90
19586;DHT22;9939;49.246;9.106;2022-07-25T00:53:38;20.10;99.90
19586;DHT22;9939;49.246;9.106;2022-07-25T00:56:06;20.10;99.90
19586;DHT22;9939;49.246;9.106;2022-07-25T00:58:34;20.00;99.90
19586;DHT22;9939;49.246;9.106;2022-07-25T01:01:01;20.00;99.90
19586;DHT22;9939;49.246;9.106;2022-07-25T01:03:28;20.00;99.90
19586;DHT22;9939;49.246;9.106;2022-07-25T01:05:55;19.80;99.90
19586;DHT22;9939;49.246;9.106;2022-07-25T01:08:22;19.80;99.90
19586;DHT22;9939;49.246;9.106;2022-07-25T01:10:49;19.80;99.90
19586;DHT22;9939;49.246;9.106;2022-07-25T01:13:16;19.80;99.90
19586;DHT22;9939;49.246;9.106;2022-07-25T01:15:46;19.80;99.90
19586;DHT22;9939;49.246;9.106;2022-07-25T01:18:13;19.80;99.90
19586;DHT22;9939;49.246;9.106;2022-07-25T01:20:40;19.80;99.90
19586;DHT22;9939;49.246;9.106;2022-07-25T01:23:07;19.70;99.90
19586;DHT22;9939;49.246;9.106;2022-07-25T01:25:34;19.80;99.90
19586;DHT22;9939;49.246;9.106;2022-07-25T01:28:01;19.70;99.90
19586;DHT22;9939;49.246;9.106;2022-07-25T01:30:28;19.60;99.90
19586;DHT22;9939;49.246;9.106;2022-07-25T01:32:55;19.50;99.90
19586;DHT22;9939;49.246;9.106;2022-07-25T01:35:22;19.60;99.90
19586;DHT22;9939;49.246;9.106;2022-07-25T01:37:49;19.50;99.90
19586;DHT22;9939;49.246;9.106;2022-07-25T01:40:16;19.50;99.90
19586;DHT22;9939;49.246;9.106;2022-07-25T01:42:44;19.50;99.90
19586;DHT22;9939;49.246;9.106;2022-07-25T01:45:11;19.40;99.90
19586;DHT22;9939;49.246;9.106;2022-07-25T01:47:38;19.30;99.90
19586;DHT22;9939;49.246;9.106;2022-07-25T01:50:06;19.30;99.90
19586;DHT22;9939;49.246;9.106;2022-07-25T01:52:35;19.30;99.90
19586;DHT22;9939;49.246;9.106;2022-07-25T01:55:02;19.50;99.90
19586;DHT22;9939;49.246;9.106;2022-07-25T01:57:31;19.40;99.90
19586;DHT22;9939;49.246;9.106;2022-07-25T01:59:59;19.30;99.90
19586;DHT22;9939;49.246;9.106;2022-07-25T02:02:26;19.40;99.90
19586;DHT22;9939;49.246;9.106;2022-07-25T02:04:53;19.30;99.90
19586;DHT22;9939;49.246;9.106;2022-07-25T02:07:20;19.30;99.90
19586;DHT22;9939;49.246;9.106;2022-07-25T02:09:47;19.20;99.90
19586;DHT22;9939;49.246;9.106;2022-07-25T02:12:19;19.20;99.90
19586;DHT22;9939;49.246;9.106;2022-07-25T02:14:45;19.20;99.90
19586;DHT22;9939;49.246;9.106;2022-07-25T02:17:12;19.30;99.90
19586;DHT22;9939;49.246;9.106;2022-07-25T02:19:39;19.20;99.90
19586;DHT22;9939;49.246;9.106;2022-07-25T02:22:07;19.10;99.90
19586;DHT22;9939;49.246;9.106;2022-07-25T02:24:33;19.20;99.90
19586;DHT22;9939;49.246;9.106;2022-07-25T02:27:03;19.10;99.90
19586;DHT22;9939;49.246;9.106;2022-07-25T02:29:31;19.00;99.90
19586;DHT22;9939;49.246;9.106;2022-07-25T02:31:58;19.00;99.90
19586;DHT22;9939;49.246;9.106;2022-07-25T02:34:25;19.00;99.90
19586;DHT22;9939;49.246;9.106;2022-07-25T02:36:51;19.00;99.90
19586;DHT22;9939;49.246;9.106;2022-07-25T02:39:19;19.00;99.90
19586;DHT22;9939;49.246;9.106;2022-07-25T02:41:46;18.90;99.90
19586;DHT22;9939;49.246;9.106;2022-07-25T02:44:13;18.90;99.90
19586;DHT22;9939;49.246;9.106;2022-07-25T02:46:40;18.90;99.90
19586;DHT22;9939;49.246;9.106;2022-07-25T02:49:07;19.00;99.90
19586;DHT22;9939;49.246;9.106;2022-07-25T02:51:34;19.00;99.90
19586;DHT22;9939;49.246;9.106;2022-07-25T02:54:01;19.00;99.90
19586;DHT22;9939;49.246;9.106;2022-07-25T02:56:28;19.00;99.90
19586;DHT22;9939;49.246;9.106;2022-07-25T02:58:57;18.90;99.90
19586;DHT22;9939;49.246;9.106;2022-07-25T03:01:24;18.90;99.90
19586;DHT22;9939;49.246;9.106;2022-07-25T03:03:51;18.90;99.90
19586;DHT22;9939;49.246;9.106;2022-07-25T03:06:18;18.80;99.90
19586;DHT22;9939;49.246;9.106;2022-07-25T03:08:45;18.80;99.90
19586;DHT22;9939;49.246;9.106;2022-07-25T03:11:12;18.60;99.90
19586;DHT22;9939;49.246;9.106;2022-07-25T03:13:39;18.60;99.90
19586;DHT22;9939;49.246;9.106;2022-07-25T03:16:07;18.60;99.90
19586;DHT22;9939;49.246;9.106;2022-07-25T03:18:34;18.80;99.90
19586;DHT22;9939;49.246;9.106;2022-07-25T03:21:01;18.70;99.90
19586;DHT22;9939;49.246;9.106;2022-07-25T03:23:28;18.80;99.90
19586;DHT22;9939;49.246;9.106;2022-07-25T03:25:56;18.60;99.90
19586;DHT22;9939;49.246;9.106;2022-07-25T03:28:23;18.50;99.90
19586;DHT22;9939;49.246;9.106;2022-07-25T03:30:51;18.40;99.90
19586;DHT22;9939;49.246;9.106;2022-07-25T03:33:18;18.40;99.90
19586;DHT22;9939;49.246;9.106;2022-07-25T03:35:45;18.50;99.90
19586;DHT22;9939;49.246;9.106;2022-07-25T03:38:12;18.40;99.90
19586;DHT22;9939;49.246;9.106;2022-07-25T03:40:39;18.40;99.90
19586;DHT22;9939;49.246;9.106;2022-07-25T03:43:06;18.60;99.90
19586;DHT22;9939;49.246;9.106;2022-07-25T03:45:33;18.60;99.90
19586;DHT22;9939;49.246;9.106;2022-07-25T03:48:00;18.40;99.90
19586;DHT22;9939;49.246;9.106;2022-07-25T03:50:27;18.40;99.90
19586;DHT22;9939;49.246;9.106;2022-07-25T03:52:54;18.50;99.90
19586;DHT22;9939;49.246;9.106;2022-07-25T03:55:21;18.30;99.90
19586;DHT22;9939;49.246;9.106;2022-07-25T03:57:48;18.40;99.90
19586;DHT22;9939;49.246;9.106;2022-07-25T04:00:15;18.40;99.90
19586;DHT22;9939;49.246;9.106;2022-07-25T04:02:43;18.30;99.90
19586;DHT22;9939;49.246;9.106;2022-07-25T04:05:10;18.50;99.90
19586;DHT22;9939;49.246;9.106;2022-07-25T04:07:37;18.30;99.90
19586;DHT22;9939;49.246;9.106;2022-07-25T04:10:05;18.50;99.90
19586;DHT22;9939;49.246;9.106;2022-07-25T04:12:32;18.50;99.90
19586;DHT22;9939;49.246;9.106;2022-07-25T04:14:59;18.40;99.90
19586;DHT22;9939;49.246;9.106;2022-07-25T04:17:27;18.40;99.90
19586;DHT22;9939;49.246;9.106;2022-07-25T04:19:53;18.40;99.90
19586;DHT22;9939;49.246;9.106;2022-07-25T04:22:20;18.40;99.90
19586;DHT22;9939;49.246;9.106;2022-07-25T04:24:48;18.50;99.90
19586;DHT22;9939;49.246;9.106;2022-07-25T04:27:14;18.50;99.90
19586;DHT22;9939;49.246;9.106;2022-07-25T04:29:42;18.60;99.90
19586;DHT22;9939;49.246;9.106;2022-07-25T04:32:09;18.60;99.90
19586;DHT22;9939;49.246;9.106;2022-07-25T04:34:36;18.60;99.90
19586;DHT22;9939;49.246;9.106;2022-07-25T04:37:03;18.70;99.90
19586;DHT22;9939;49.246;9.106;2022-07-25T04:39:30;18.80;99.90
19586;DHT22;9939;49.246;9.106;2022-07-25T04:41:57;18.80;99.90
19586;DHT22;9939;49.246;9.106;2022-07-25T04:44:24;18.80;99.90
19586;DHT22;9939;49.246;9.106;2022-07-25T04:46:51;19.00;99.90
19586;DHT22;9939;49.246;9.106;2022-07-25T04:49:17;19.00;99.90
19586;DHT22;9939;49.246;9.106;2022-07-25T04:51:44;19.20;99.90
19586;DHT22;9939;49.246;9.106;2022-07-25T04:54:11;19.20;99.90
19586;DHT22;9939;49.246;9.106;2022-07-25T04:56:38;19.30;99.90
19586;DHT22;9939;49.246;9.106;2022-07-25T04:59:05;19.30;99.90
19586;DHT22;9939;49.246;9.106;2022-07-25T05:01:33;19.20;99.90
19586;DHT22;9939;49.246;9.106;2022-07-25T05:04:01;19.20;99.90
19586;DHT22;9939;49.246;9.106;2022-07-25T05:06:27;19.40;99.90
19586;DHT22;9939;49.246;9.106;2022-07-25T05:08:54;19.40;99.90
19586;DHT22;9939;49.246;9.106;2022-07-25T05:11:21;19.40;99.90
19586;DHT22;9939;49.246;9.106;2022-07-25T05:13:48;19.60;99.90
19586;DHT22;9939;49.246;9.106;2022-07-25T05:16:15;19.70;99.90
19586;DHT22;9939;49.246;9.106;2022-07-25T05:18:42;19.90;99.90
19586;DHT22;9939;49.246;9.106;2022-07-25T05:21:12;20.10;99.90
19586;DHT22;9939;49.246;9.106;2022-07-25T05:23:40;20.20;99.90
19586;DHT22;9939;49.246;9.106;2022-07-25T05:26:07;20.40;99.90
19586;DHT22;9939;49.246;9.106;2022-07-25T05:28:34;20.70;99.90
19586;DHT22;9939;49.246;9.106;2022-07-25T05:31:01;20.90;99.90
19586;DHT22;9939;49.246;9.106;2022-07-25T05:33:28;20.90;99.90
19586;DHT22;9939;49.246;9.106;2022-07-25T05:35:55;21.00;99.90
19586;DHT22;9939;49.246;9.106;2022-07-25T05:38:22;21.30;99.90
19586;DHT22;9939;49.246;9.106;2022-07-25T05:40:49;21.30;99.90
19586;DHT22;9939;49.246;9.106;2022-07-25T05:43:17;21.40;99.90
19586;DHT22;9939;49.246;9.106;2022-07-25T05:45:44;21.60;99.90
19586;DHT22;9939;49.246;9.106;2022-07-25T05:48:13;21.80;99.90
19586;DHT22;9939;49.246;9.106;2022-07-25T05:50:40;22.10;99.90
19586;DHT22;9939;49.246;9.106;2022-07-25T05:53:07;22.30;99.90
19586;DHT22;9939;49.246;9.106;2022-07-25T05:55:34;22.50;99.90
19586;DHT22;9939;49.246;9.106;2022-07-25T05:58:06;22.80;99.90
19586;DHT22;9939;49.246;9.106;2022-07-25T06:00:34;23.00;99.90
19586;DHT22;9939;49.246;9.106;2022-07-25T06:03:01;23.20;99.90
19586;DHT22;9939;49.246;9.106;2022-07-25T06:05:29;23.10;99.90
19586;DHT22;9939;49.246;9.106;2022-07-25T06:07:55;23.40;99.90
19586;DHT22;9939;49.246;9.106;2022-07-25T06:10:23;23.50;99.90
19586;DHT22;9939;49.246;9.106;2022-07-25T06:12:50;23.70;99.90
19586;DHT22;9939;49.246;9.106;2022-07-25T06:15:16;23.90;99.90
19586;DHT22;9939;49.246;9.106;2022-07-25T06:17:52;24.20;99.90
19586;DHT22;9939;49.246;9.106;2022-07-25T06:20:19;24.30;99.90
19586;DHT22;9939;49.246;9.106;2022-07-25T06:22:46;24.40;99.90
19586;DHT22;9939;49.246;9.106;2022-07-25T06:25:13;24.60;99.90
19586;DHT22;9939;49.246;9.106;2022-07-25T06:27:41;24.90;99.90
19586;DHT22;9939;49.246;9.106;2022-07-25T06:30:08;24.90;99.90
19586;DHT22;9939;49.246;9.106;2022-07-25T06:32:45;25.00;99.90
19586;DHT22;9939;49.246;9.106;2022-07-25T06:35:12;25.20;99.90
19586;DHT22;9939;49.246;9.106;2022-07-25T06:37:39;25.10;99.90
19586;DHT22;9939;49.246;9.106;2022-07-25T06:40:07;25.30;99.90
19586;DHT22;9939;49.246;9.106;2022-07-25T06:42:44;25.30;99.90
19586;DHT22;9939;49.246;9.106;2022-07-25T06:45:12;25.20;99.90
19586;DHT22;9939;49.246;9.106;2022-07-25T06:47:40;25.20;99.90
19586;DHT22;9939;49.246;9.106;2022-07-25T06:50:09;25.50;99.90
19586;DHT22;9939;49.246;9.106;2022-07-25T06:52:37;25.70;99.90
19586;DHT22;9939;49.246;9.106;2022-07-25T06:55:06;25.90;99.90
19586;DHT22;9939;49.246;9.106;2022-07-25T06:57:33;26.20;99.90
19586;DHT22;9939;49.246;9.106;2022-07-25T07:00:00;26.10;99.90
19586;DHT22;9939;49.246;9.106;2022-07-25T07:02:27;26.10;99.90
19586;DHT22;9939;49.246;9.106;2022-07-25T07:04:54;26.40;99.90
19586;DHT22;9939;49.246;9.106;2022-07-25T07:07:21;26.50;99.90
19586;DHT22;9939;49.246;9.106;2022-07-25T07:09:47;26.60;99.90
19586;DHT22;9939;49.246;9.106;2022-07-25T07:12:14;26.50;99.90
19586;DHT22;9939;49.246;9.106;2022-07-25T07:14:41;26.80;99.90
19586;DHT22;9939;49.246;9.106;2022-07-25T07:17:10;26.90;99.90
19586;DHT22;9939;49.246;9.106;2022-07-25T07:19:37;27.10;99.90
19586;DHT22;9939;49.246;9.106;2022-07-25T07:22:10;27.20;99.90
19586;DHT22;9939;49.246;9.106;2022-07-25T07:24:39;27.30;99.90
19586;DHT22;9939;49.246;9.106;2022-07-25T07:27:10;27.20;99.90
19586;DHT22;9939;49.246;9.106;2022-07-25T07:29:37;27.30;99.90
19586;DHT22;9939;49.246;9.106;2022-07-25T07:32:05;27.50;99.90
19586;DHT22;9939;49.246;9.106;2022-07-25T07:34:32;27.60;99.90
19586;DHT22;9939;49.246;9.106;2022-07-25T07:36:59;27.70;99.90
19586;DHT22;9939;49.246;9.106;2022-07-25T07:39:27;27.90;99.90
19586;DHT22;9939;49.246;9.106;2022-07-25T07:41:54;27.90;99.90
19586;DHT22;9939;49.246;9.106;2022-07-25T07:44:21;27.90;99.90
19586;DHT22;9939;49.246;9.106;2022-07-25T07:46:48;28.00;99.90
19586;DHT22;9939;49.246;9.106;2022-07-25T07:49:15;28.10;99.90
19586;DHT22;9939;49.246;9.106;2022-07-25T07:51:42;28.30;99.90
19586;DHT22;9939;49.246;9.106;2022-07-25T07:54:09;28.50;99.90
19586;DHT22;9939;49.246;9.106;2022-07-25T07:56:54;28.60;99.90
19586;DHT22;9939;49.246;9.106;2022-07-25T07:59:21;28.60;99.90
19586;DHT22;9939;49.246;9.106;2022-07-25T08:01:48;28.80;99.90
19586;DHT22;9939;49.246;9.106;2022-07-25T08:04:15;29.10;99.90
19586;DHT22;9939;49.246;9.106;2022-07-25T08:06:42;29.30;99.90
19586;DHT22;9939;49.246;9.106;2022-07-25T08:09:09;29.30;99.90
19586;DHT22;9939;49.246;9.106;2022-07-25T08:11:36;29.60;99.90
19586;DHT22;9939;49.246;9.106;2022-07-25T08:14:03;29.90;99.90
19586;DHT22;9939;49.246;9.106;2022-07-25T08:16:31;30.00;99.90
19586;DHT22;9939;49.246;9.106;2022-07-25T08:18:58;29.90;99.90
19586;DHT22;9939;49.246;9.106;2022-07-25T08:21:25;29.90;99.90
19586;DHT22;9939;49.246;9.106;2022-07-25T08:23:53;29.90;99.90
19586;DHT22;9939;49.246;9.106;2022-07-25T08:26:19;30.00;99.90
19586;DHT22;9939;49.246;9.106;2022-07-25T08:28:46;30.00;99.90
19586;DHT22;9939;49.246;9.106;2022-07-25T08:31:25;30.00;99.90
19586;DHT22;9939;49.246;9.106;2022-07-25T08:33:53;30.20;99.90
19586;DHT22;9939;49.246;9.106;2022-07-25T08:36:20;30.70;99.90
19586;DHT22;9939;49.246;9.106;2022-07-25T08:38:47;30.60;99.90
19586;DHT22;9939;49.246;9.106;2022-07-25T08:41:14;30.80;99.90
19586;DHT22;9939;49.246;9.106;2022-07-25T08:43:42;30.70;99.90
19586;DHT22;9939;49.246;9.106;2022-07-25T08:46:10;30.90;99.90
19586;DHT22;9939;49.246;9.106;2022-07-25T08:48:37;31.10;99.90
19586;DHT22;9939;49.246;9.106;2022-07-25T08:51:06;31.00;99.90
19586;DHT22;9939;49.246;9.106;2022-07-25T08:53:35;31.40;99.90
19586;DHT22;9939;49.246;9.106;2022-07-25T08:56:03;31.50;99.90
19586;DHT22;9939;49.246;9.106;2022-07-25T08:58:40;31.90;99.90
19586;DHT22;9939;49.246;9.106;2022-07-25T09:01:10;32.60;99.90
19586;DHT22;9939;49.246;9.106;2022-07-25T09:03:37;32.70;99.90
19586;DHT22;9939;49.246;9.106;2022-07-25T09:06:21;32.60;99.90
19586;DHT22;9939;49.246;9.106;2022-07-25T09:08:55;32.10;99.90
19586;DHT22;9939;49.246;9.106;2022-07-25T09:11:28;32.00;99.90
19586;DHT22;9939;49.246;9.106;2022-07-25T09:14:03;32.10;99.90
19586;DHT22;9939;49.246;9.106;2022-07-25T09:16:41;31.90;99.90
19586;DHT22;9939;49.246;9.106;2022-07-25T09:19:21;32.60;99.90
19586;DHT22;9939;49.246;9.106;2022-07-25T09:22:06;33.20;99.90
19586;DHT22;9939;49.246;9.106;2022-07-25T09:24:43;33.20;99.90
19586;DHT22;9939;49.246;9.106;2022-07-25T09:27:10;33.80;99.90
19586;DHT22;9939;49.246;9.106;2022-07-25T09:29:39;34.20;99.90
19586;DHT22;9939;49.246;9.106;2022-07-25T09:32:19;33.80;99.90
19586;DHT22;9939;49.246;9.106;2022-07-25T09:34:47;34.40;99.70
19586;DHT22;9939;49.246;9.106;2022-07-25T09:37:16;34.90;98.60
19586;DHT22;9939;49.246;9.106;2022-07-25T09:39:48;35.30;98.20
19586;DHT22;9939;49.246;9.106;2022-07-25T09:42:20;35.40;97.40
19586;DHT22;9939;49.246;9.106;2022-07-25T09:47:32;35.50;96.80
19586;DHT22;9939;49.246;9.106;2022-07-25T09:49:59;35.80;96.40
19586;DHT22;9939;49.246;9.106;2022-07-25T09:52:26;35.80;96.20
19586;DHT22;9939;49.246;9.106;2022-07-25T09:54:53;36.30;95.80
19586;DHT22;9939;49.246;9.106;2022-07-25T09:57:21;36.10;95.10
19586;DHT22;9939;49.246;9.106;2022-07-25T09:59:49;37.40;95.10
19586;DHT22;9939;49.246;9.106;2022-07-25T10:07:36;37.70;91.70
19586;DHT22;9939;49.246;9.106;2022-07-25T10:10:04;38.20;91.40
19586;DHT22;9939;49.246;9.106;2022-07-25T10:12:31;38.60;90.90
19586;DHT22;9939;49.246;9.106;2022-07-25T10:15:04;38.40;90.30
19586;DHT22;9939;49.246;9.106;2022-07-25T10:17:32;39.00;90.00
19586;DHT22;9939;49.246;9.106;2022-07-25T10:19:59;38.90;90.00
19586;DHT22;9939;49.246;9.106;2022-07-25T10:22:43;38.80;89.30
19586;DHT22;9939;49.246;9.106;2022-07-25T10:25:22;38.40;88.20
19586;DHT22;9939;49.246;9.106;2022-07-25T10:27:52;39.00;88.40
19586;DHT22;9939;49.246;9.106;2022-07-25T10:30:32;39.30;85.70
19586;DHT22;9939;49.246;9.106;2022-07-25T10:33:04;39.30;86.10
19586;DHT22;9939;49.246;9.106;2022-07-25T10:35:31;40.00;85.70
19586;DHT22;9939;49.246;9.106;2022-07-25T10:38:01;40.30;85.10
19586;DHT22;9939;49.246;9.106;2022-07-25T10:40:43;40.80;81.80
19586;DHT22;9939;49.246;9.106;2022-07-25T10:43:17;39.90;81.80
19586;DHT22;9939;49.246;9.106;2022-07-25T10:45:53;39.70;82.60
19586;DHT22;9939;49.246;9.106;2022-07-25T10:48:28;40.00;82.40
19586;DHT22;9939;49.246;9.106;2022-07-25T10:51:07;40.90;80.80
19586;DHT22;9939;49.246;9.106;2022-07-25T10:53:47;40.30;82.50
19586;DHT22;9939;49.246;9.106;2022-07-25T10:56:16;40.50;80.80
19586;DHT22;9939;49.246;9.106;2022-07-25T10:58:59;40.80;79.40
19586;DHT22;9939;49.246;9.106;2022-07-25T11:01:32;40.70;78.20
19586;DHT22;9939;49.246;9.106;2022-07-25T11:04:04;39.80;78.30
19586;DHT22;9939;49.246;9.106;2022-07-25T11:06:36;41.10;78.10
19586;DHT22;9939;49.246;9.106;2022-07-25T11:11:48;40.00;77.10
19586;DHT22;9939;49.246;9.106;2022-07-25T11:16:48;39.90;79.10
19586;DHT22;9939;49.246;9.106;2022-07-25T11:21:51;39.30;78.40
19586;DHT22;9939;49.246;9.106;2022-07-25T11:24:18;38.60;79.10
19586;DHT22;9939;49.246;9.106;2022-07-25T11:26:49;38.30;80.40
19586;DHT22;9939;49.246;9.106;2022-07-25T11:29:25;38.80;78.70
19586;DHT22;9939;49.246;9.106;2022-07-25T11:31:54;39.30;78.50
19586;DHT22;9939;49.246;9.106;2022-07-25T11:34:25;39.80;77.60
19586;DHT22;9939;49.246;9.106;2022-07-25T11:36:54;39.30;78.20
19586;DHT22;9939;49.246;9.106;2022-07-25T11:39:27;40.50;77.40
19586;DHT22;9939;49.246;9.106;2022-07-25T11:44:48;41.50;73.40
19586;DHT22;9939;49.246;9.106;2022-07-25T11:47:32;42.10;73.10
19586;DHT22;9939;49.246;9.106;2022-07-25T11:50:01;42.40;70.90
19586;DHT22;9939;49.246;9.106;2022-07-25T11:52:31;41.90;72.00
19586;DHT22;9939;49.246;9.106;2022-07-25T11:55:01;41.40;72.60
19586;DHT22;9939;49.246;9.106;2022-07-25T11:57:31;41.30;72.80
19586;DHT22;9939;49.246;9.106;2022-07-25T12:00:00;40.30;74.40
19586;DHT22;9939;49.246;9.106;2022-07-25T12:02:34;40.70;73.30
19586;DHT22;9939;49.246;9.106;2022-07-25T12:05:03;40.60;72.80
19586;DHT22;9939;49.246;9.106;2022-07-25T12:10:09;41.20;71.10
19586;DHT22;9939;49.246;9.106;2022-07-25T12:12:47;41.00;71.20
19586;DHT22;9939;49.246;9.106;2022-07-25T12:15:17;41.50;71.20
19586;DHT22;9939;49.246;9.106;2022-07-25T12:17:46;41.90;69.10
19586;DHT22;9939;49.246;9.106;2022-07-25T12:20:21;42.00;70.30
19586;DHT22;9939;49.246;9.106;2022-07-25T12:22:50;42.20;68.20
19586;DHT22;9939;49.246;9.106;2022-07-25T12:25:18;41.10;68.30
19586;DHT22;9939;49.246;9.106;2022-07-25T12:27:45;39.80;70.40
19586;DHT22;9939;49.246;9.106;2022-07-25T12:30:12;38.60;72.40
19586;DHT22;9939;49.246;9.106;2022-07-25T12:32:40;37.20;75.10
19586;DHT22;9939;49.246;9.106;2022-07-25T12:35:09;37.10;76.00
19586;DHT22;9939;49.246;9.106;2022-07-25T12:37:37;37.10;75.90
19586;DHT22;9939;49.246;9.106;2022-07-25T12:40:04;37.40;76.10
19586;DHT22;9939;49.246;9.106;2022-07-25T12:42:32;38.90;74.60
19586;DHT22;9939;49.246;9.106;2022-07-25T12:44:59;40.60;71.80
19586;DHT22;9939;49.246;9.106;2022-07-25T12:47:27;42.10;68.90
19586;DHT22;9939;49.246;9.106;2022-07-25T12:49:54;42.20;68.80
19586;DHT22;9939;49.246;9.106;2022-07-25T12:52:21;41.40;68.30
19586;DHT22;9939;49.246;9.106;2022-07-25T12:54:48;42.00;68.00
19586;DHT22;9939;49.246;9.106;2022-07-25T12:57:15;41.30;68.30
19586;DHT22;9939;49.246;9.106;2022-07-25T12:59:42;40.90;69.10
19586;DHT22;9939;49.246;9.106;2022-07-25T13:02:09;40.00;70.50
19586;DHT22;9939;49.246;9.106;2022-07-25T13:04:37;39.20;72.20
19586;DHT22;9939;49.246;9.106;2022-07-25T13:07:04;38.10;74.60
19586;DHT22;9939;49.246;9.106;2022-07-25T13:09:31;37.50;76.20
19586;DHT22;9939;49.246;9.106;2022-07-25T13:11:59;37.90;76.20
19586;DHT22;9939;49.246;9.106;2022-07-25T13:14:25;38.30;75.70
19586;DHT22;9939;49.246;9.106;2022-07-25T13:16:52;40.30;73.40
19586;DHT22;9939;49.246;9.106;2022-07-25T13:19:19;41.00;73.10
19586;DHT22;9939;49.246;9.106;2022-07-25T13:21:46;41.50;70.30
19586;DHT22;9939;49.246;9.106;2022-07-25T13:24:13;39.60;72.50
19586;DHT22;9939;49.246;9.106;2022-07-25T13:26:40;39.30;73.90
19586;DHT22;9939;49.246;9.106;2022-07-25T13:29:07;39.00;72.90
19586;DHT22;9939;49.246;9.106;2022-07-25T13:31:38;38.50;74.60
19586;DHT22;9939;49.246;9.106;2022-07-25T13:34:07;38.10;75.20
19586;DHT22;9939;49.246;9.106;2022-07-25T13:36:37;37.90;76.90
19586;DHT22;9939;49.246;9.106;2022-07-25T13:39:05;38.10;76.30
19586;DHT22;9939;49.246;9.106;2022-07-25T13:41:32;37.70;77.50
19586;DHT22;9939;49.246;9.106;2022-07-25T13:43:59;37.40;78.80
19586;DHT22;9939;49.246;9.106;2022-07-25T13:46:26;36.40;79.20
19586;DHT22;9939;49.246;9.106;2022-07-25T13:48:54;36.80;79.00
19586;DHT22;9939;49.246;9.106;2022-07-25T13:51:21;36.60;79.40
19586;DHT22;9939;49.246;9.106;2022-07-25T13:53:48;36.10;80.30
19586;DHT22;9939;49.246;9.106;2022-07-25T13:56:15;35.60;81.70
19586;DHT22;9939;49.246;9.106;2022-07-25T13:58:42;35.40;82.30
19586;DHT22;9939;49.246;9.106;2022-07-25T14:01:09;35.20;82.70
19586;DHT22;9939;49.246;9.106;2022-07-25T14:03:37;35.10;88.50
19586;DHT22;9939;49.246;9.106;2022-07-25T14:06:04;34.10;91.10
19586;DHT22;9939;49.246;9.106;2022-07-25T14:08:31;33.70;89.30
19586;DHT22;9939;49.246;9.106;2022-07-25T14:10:59;34.20;88.20
19586;DHT22;9939;49.246;9.106;2022-07-25T14:13:26;35.50;86.20
19586;DHT22;9939;49.246;9.106;2022-07-25T14:15:53;37.10;84.50
19586;DHT22;9939;49.246;9.106;2022-07-25T14:18:21;39.30;79.80
19586;DHT22;9939;49.246;9.106;2022-07-25T14:20:48;42.50;76.20
19586;DHT22;9939;49.246;9.106;2022-07-25T14:23:15;43.90;71.00
19586;DHT22;9939;49.246;9.106;2022-07-25T14:25:42;43.20;71.30
19586;DHT22;9939;49.246;9.106;2022-07-25T14:28:09;42.00;70.40
19586;DHT22;9939;49.246;9.106;2022-07-25T14:30:37;41.00;72.60
19586;DHT22;9939;49.246;9.106;2022-07-25T14:33:04;42.00;70.60
19586;DHT22;9939;49.246;9.106;2022-07-25T14:35:31;41.90;71.30
19586;DHT22;9939;49.246;9.106;2022-07-25T14:37:58;41.50;71.60
19586;DHT22;9939;49.246;9.106;2022-07-25T14:40:25;40.70;72.60
19586;DHT22;9939;49.246;9.106;2022-07-25T14:42:52;38.00;76.10
19586;DHT22;9939;49.246;9.106;2022-07-25T14:45:19;35.90;79.90
19586;DHT22;9939;49.246;9.106;2022-07-25T14:47:47;34.60;83.40
19586;DHT22;9939;49.246;9.106;2022-07-25T14:50:14;34.20;85.20
19586;DHT22;9939;49.246;9.106;2022-07-25T14:52:41;33.80;86.40
19586;DHT22;9939;49.246;9.106;2022-07-25T14:55:08;33.50;87.70
19586;DHT22;9939;49.246;9.106;2022-07-25T14:57:36;33.40;88.40
19586;DHT22;9939;49.246;9.106;2022-07-25T15:00:04;33.10;89.30
19586;DHT22;9939;49.246;9.106;2022-07-25T15:02:31;32.80;89.90
19586;DHT22;9939;49.246;9.106;2022-07-25T15:04:58;32.70;90.40
19586;DHT22;9939;49.246;9.106;2022-07-25T15:07:25;32.50;90.40
19586;DHT22;9939;49.246;9.106;2022-07-25T15:09:51;32.40;90.70
19586;DHT22;9939;49.246;9.106;2022-07-25T15:12:18;32.20;92.00
19586;DHT22;9939;49.246;9.106;2022-07-25T15:14:46;32.00;92.10
19586;DHT22;9939;49.246;9.106;2022-07-25T15:17:13;32.30;91.90
19586;DHT22;9939;49.246;9.106;2022-07-25T15:19:40;32.20;91.80
19586;DHT22;9939;49.246;9.106;2022-07-25T15:22:06;32.00;94.80
19586;DHT22;9939;49.246;9.106;2022-07-25T15:24:33;31.20;95.30
19586;DHT22;9939;49.246;9.106;2022-07-25T15:27:20;31.10;95.30
19586;DHT22;9939;49.246;9.106;2022-07-25T15:29:47;31.40;96.80
19586;DHT22;9939;49.246;9.106;2022-07-25T15:32:14;30.70;97.80
19586;DHT22;9939;49.246;9.106;2022-07-25T15:34:41;30.40;99.60
19586;DHT22;9939;49.246;9.106;2022-07-25T15:37:08;30.80;99.20
19586;DHT22;9939;49.246;9.106;2022-07-25T15:39:35;30.60;98.40
19586;DHT22;9939;49.246;9.106;2022-07-25T15:42:02;30.60;98.30
19586;DHT22;9939;49.246;9.106;2022-07-25T15:44:29;32.30;97.10
19586;DHT22;9939;49.246;9.106;2022-07-25T15:46:58;34.80;94.30
19586;DHT22;9939;49.246;9.106;2022-07-25T15:49:25;37.20;91.60
19586;DHT22;9939;49.246;9.106;2022-07-25T15:51:52;38.30;89.30
19586;DHT22;9939;49.246;9.106;2022-07-25T15:54:19;39.80;86.60
19586;DHT22;9939;49.246;9.106;2022-07-25T15:56:46;39.20;85.30
19586;DHT22;9939;49.246;9.106;2022-07-25T15:59:13;39.30;85.20
19586;DHT22;9939;49.246;9.106;2022-07-25T16:01:40;38.80;86.30
19586;DHT22;9939;49.246;9.106;2022-07-25T16:04:10;39.30;85.50
19586;DHT22;9939;49.246;9.106;2022-07-25T16:06:36;39.20;83.70
19586;DHT22;9939;49.246;9.106;2022-07-25T16:09:04;39.30;83.90
19586;DHT22;9939;49.246;9.106;2022-07-25T16:11:32;40.00;83.40
19586;DHT22;9939;49.246;9.106;2022-07-25T16:14:01;39.80;82.50